Lexington, Mississippi
Current Conditions -  °F | °C
As of 10:53 PM on Wednesday 17 Dec 2014 (Local Time) from KGWO Reporting Station
Few Clouds Few Clouds  
Wind Chill: 39°   Ceiling: Unl
Heat Index: 42°   Visibility: 10mi
Dew Point: 37°   Wind: 5mph
Humidity: 82%   Direction: 360°N
Pressure: 30.23"   Gusts: NA
Location:  33.11°N, 90.05°W
Report Text: KGWO 180453Z AUTO 36004KT 10SM FEW120 06/03 A3023 RMK AO2 SLP236 T00560028
Loading
Personal Weather Stations






























Interactive Weather Map New forecast layout! Learn more

10-Day Weather Forecast

Advertisements
Track Severe Weather on mobile